Time;durP1;ratioP1;P1;durP2;ratioP2;P2;SDS_P1;SDS_P2;PMS_P1;PMS_P2;Temp;Humidity;BMP_temperature;BMP_pressure;BME280_temperature;BME280_humidity;BME280_pressure;Samples;Min_cycle;Max_cycle;Signal;HPM_P1;HPM_P2
2024/01/02 00:02:27;;;;;;;1.10;0.30;;;11.50;99.90;;;;;;6351535;28;20451;-91
2024/01/02 00:05:29;;;;;;;1.42;0.40;;;11.50;99.90;;;;;;6356491;28;20069;-92
2024/01/02 00:08:31;;;;;;;2.63;0.50;;;11.50;99.90;;;;;;6347122;28;20044;-93
2024/01/02 00:11:33;;;;;;;1.38;0.40;;;11.70;99.90;;;;;;6361214;28;20034;-94
2024/01/02 00:14:35;;;;;;;1.95;0.50;;;11.60;99.90;;;;;;6345925;28;20109;-93
2024/01/02 00:17:36;;;;;;;2.08;0.73;;;11.60;99.90;;;;;;6357856;28;20047;-95
2024/01/02 00:20:38;;;;;;;1.70;0.60;;;11.70;99.90;;;;;;6332898;28;20140;-94
2024/01/02 00:23:40;;;;;;;2.53;0.40;;;11.70;99.90;;;;;;6354506;28;20062;-93
2024/01/02 00:26:42;;;;;;;1.98;0.40;;;11.70;99.90;;;;;;6351818;28;20060;-92
2024/01/02 00:29:43;;;;;;;2.17;0.40;;;11.70;99.90;;;;;;6316494;28;20051;-91
2024/01/02 00:32:45;;;;;;;2.13;0.40;;;11.70;99.90;;;;;;6338946;28;20499;-92
2024/01/02 00:35:47;;;;;;;1.70;0.35;;;11.70;99.90;;;;;;6342891;28;20057;-92
2024/01/02 00:38:49;;;;;;;1.75;0.50;;;11.80;99.90;;;;;;6337776;28;20048;-91
2024/01/02 00:41:53;;;;;;;1.60;0.40;;;11.90;99.90;;;;;;6339815;28;20433;-91
2024/01/02 00:44:55;;;;;;;1.42;0.50;;;12.00;99.90;;;;;;6338743;28;20496;-90
2024/01/02 00:47:57;;;;;;;1.75;0.47;;;12.00;99.90;;;;;;6342245;28;20052;-91
2024/01/02 00:50:59;;;;;;;2.05;0.50;;;12.00;99.90;;;;;;6340432;28;20052;-91
2024/01/02 00:54:00;;;;;;;3.85;0.85;;;12.00;99.90;;;;;;6366022;28;20079;-90
2024/01/02 00:57:02;;;;;;;1.13;0.40;;;12.10;99.90;;;;;;6364804;28;20515;-92
2024/01/02 01:00:05;;;;;;;2.28;0.50;;;12.10;99.90;;;;;;6337357;28;20068;-94
2024/01/02 01:03:09;;;;;;;1.98;0.50;;;11.80;99.90;;;;;;6354352;28;20096;-92
2024/01/02 01:06:11;;;;;;;1.60;0.50;;;12.30;99.90;;;;;;6370344;28;20048;-90
2024/01/02 01:09:13;;;;;;;2.25;0.50;;;12.20;99.90;;;;;;6365045;28;20046;-91
2024/01/02 01:12:15;;;;;;;2.83;0.57;;;12.20;99.90;;;;;;6342570;28;20487;-91
2024/01/02 01:15:17;;;;;;;3.13;0.60;;;12.20;99.90;;;;;;6318029;28;20059;-92
2024/01/02 01:18:19;;;;;;;3.53;0.60;;;12.20;99.90;;;;;;6347848;28;20055;-91
2024/01/02 01:21:21;;;;;;;3.13;0.60;;;12.20;99.90;;;;;;6339695;28;20052;-92
2024/01/02 01:24:23;;;;;;;4.75;0.80;;;12.20;99.90;;;;;;6359132;27;20508;-90
2024/01/02 01:27:25;;;;;;;1.60;0.50;;;12.20;99.90;;;;;;6359684;28;20071;-91
2024/01/02 01:30:26;;;;;;;3.38;0.75;;;12.20;99.90;;;;;;6356679;28;20060;-92
2024/01/02 01:33:29;;;;;;;2.03;0.50;;;;;;;;;;6385384;28;20165;-90
2024/01/02 01:36:31;;;;;;;2.50;0.52;;;12.10;99.90;;;;;;6351724;28;20039;-92
2024/01/02 01:39:33;;;;;;;4.55;0.90;;;;;;;;;;6363387;28;20055;-92
2024/01/02 01:42:35;;;;;;;5.20;0.70;;;12.10;99.90;;;;;;6386727;28;20053;-93
2024/01/02 01:45:37;;;;;;;2.75;0.60;;;12.10;99.90;;;;;;6369151;27;20123;-91
2024/01/02 01:48:38;;;;;;;3.42;0.68;;;12.10;99.90;;;;;;6400496;27;20466;-92
2024/01/02 01:51:41;;;;;;;3.40;0.70;;;12.10;99.90;;;;;;6375490;27;20063;-93
2024/01/02 01:54:42;;;;;;;2.80;0.93;;;12.00;99.90;;;;;;6401160;27;20136;-93
2024/01/02 01:57:44;;;;;;;5.07;0.98;;;11.90;99.90;;;;;;6411363;27;20417;-93
2024/01/02 02:00:46;;;;;;;3.53;0.98;;;11.90;99.90;;;;;;6357951;27;20047;-93
2024/01/02 02:03:48;;;;;;;3.30;0.80;;;11.90;99.90;;;;;;6346781;28;20052;-92
2024/01/02 02:06:57;;;;;;;3.30;1.00;;;12.00;99.90;;;;;;6365832;28;20056;-91
2024/01/02 02:09:59;;;;;;;5.22;0.80;;;11.90;99.90;;;;;;6369926;27;20058;-91
2024/01/02 02:13:01;;;;;;;4.43;0.88;;;11.90;99.90;;;;;;6346614;28;20048;-90
2024/01/02 02:16:05;;;;;;;3.03;0.98;;;11.90;99.90;;;;;;6372630;27;20047;-93
2024/01/02 02:19:10;;;;;;;3.97;1.10;;;11.90;99.90;;;;;;6391142;27;20122;-94
2024/01/02 02:22:17;;;;;;;4.60;1.17;;;11.90;99.90;;;;;;6351073;28;20542;-94
2024/01/02 02:25:20;;;;;;;4.85;1.00;;;11.90;99.90;;;;;;6364924;28;20051;-91
2024/01/02 02:28:21;;;;;;;3.58;0.90;;;11.90;99.90;;;;;;6348034;28;20107;-92
2024/01/02 02:31:23;;;;;;;5.70;1.10;;;11.90;99.90;;;;;;6351597;28;20076;-93
2024/01/02 02:34:27;;;;;;;4.35;0.90;;;11.80;99.90;;;;;;6371179;28;20051;-94
2024/01/02 02:37:29;;;;;;;5.05;1.10;;;11.70;99.90;;;;;;6373186;28;20471;-93
2024/01/02 02:40:31;;;;;;;6.60;1.00;;;11.70;99.90;;;;;;6327808;28;20051;-92
2024/01/02 02:43:32;;;;;;;4.32;0.93;;;11.70;99.90;;;;;;6363866;28;20576;-93
2024/01/02 02:46:34;;;;;;;4.43;0.90;;;11.70;99.90;;;;;;6348355;28;20071;-94
2024/01/02 02:49:36;;;;;;;4.88;0.98;;;11.70;99.90;;;;;;6353196;28;20123;-91
2024/01/02 02:52:38;;;;;;;4.72;1.00;;;11.70;99.90;;;;;;6326141;28;20040;-91
2024/01/02 02:55:40;;;;;;;2.75;0.80;;;12.10;99.90;;;;;;6329163;28;20044;-93
2024/01/02 02:58:42;;;;;;;6.47;1.30;;;11.70;99.90;;;;;;6341806;28;20484;-95
2024/01/02 03:01:44;;;;;;;4.70;1.20;;;11.70;99.90;;;;;;6326167;28;20105;-93
2024/01/02 03:04:45;;;;;;;5.50;1.25;;;11.60;99.90;;;;;;6369636;28;20030;-94
2024/01/02 03:07:47;;;;;;;6.75;1.30;;;11.70;99.90;;;;;;6352117;28;20048;-92
2024/01/02 03:10:51;;;;;;;6.57;1.38;;;11.60;99.90;;;;;;6324954;28;20132;-95
2024/01/02 03:13:53;;;;;;;6.28;1.20;;;11.60;99.90;;;;;;6342430;28;20106;-91
2024/01/02 03:16:57;;;;;;;7.30;1.30;;;11.40;99.90;;;;;;6372877;27;20089;-93
2024/01/02 03:20:14;;;;;;;5.85;1.50;;;11.40;99.90;;;;;;6335293;28;20052;-92
2024/01/02 03:23:16;;;;;;;7.35;1.20;;;11.40;99.90;;;;;;6358039;28;20076;-92
2024/01/02 03:26:19;;;;;;;7.38;1.33;;;11.60;99.90;;;;;;6344281;28;20117;-94
2024/01/02 03:29:22;;;;;;;8.57;1.35;;;11.50;99.90;;;;;;6350726;28;20105;-92
2024/01/02 03:32:24;;;;;;;6.88;1.42;;;11.20;99.90;;;;;;6339302;28;20052;-93
2024/01/02 03:35:32;;;;;;;8.30;1.40;;;11.40;99.90;;;;;;6343752;28;20044;-95
2024/01/02 03:38:52;;;;;;;11.73;1.67;;;11.00;99.90;;;;;;6343164;28;20052;-94
2024/01/02 03:42:09;;;;;;;7.57;1.50;;;11.40;99.90;;;;;;6358719;28;20108;-92
2024/01/02 03:45:15;;;;;;;7.70;1.35;;;11.40;99.90;;;;;;6337675;28;20075;-93
2024/01/02 03:48:17;;;;;;;7.43;1.35;;;11.50;99.90;;;;;;6345003;28;20051;-92
2024/01/02 03:51:20;;;;;;;6.68;1.30;;;11.60;99.90;;;;;;6369550;28;20051;-92
2024/01/02 03:54:22;;;;;;;6.25;1.30;;;11.40;99.90;;;;;;6372778;28;20047;-93
2024/01/02 03:57:26;;;;;;;6.47;1.38;;;11.40;99.90;;;;;;6376701;28;20073;-92
2024/01/02 04:00:33;;;;;;;7.07;1.63;;;11.40;99.90;;;;;;6357082;28;20072;-93
2024/01/02 04:03:36;;;;;;;8.45;1.40;;;11.50;99.90;;;;;;6367328;28;20067;-92
2024/01/02 04:06:39;;;;;;;10.88;1.60;;;11.40;99.90;;;;;;6342888;28;20048;-92
2024/01/02 04:09:42;;;;;;;10.90;1.60;;;11.40;99.90;;;;;;6365685;28;20043;-92
2024/01/02 04:12:44;;;;;;;11.52;2.10;;;;;;;;;;6368559;28;20410;-93
2024/01/02 04:15:49;;;;;;;13.10;1.90;;;11.50;99.90;;;;;;6361582;28;20055;-93
2024/01/02 04:18:51;;;;;;;14.15;1.95;;;11.50;99.90;;;;;;6344194;28;20126;-92
2024/01/02 04:21:53;;;;;;;12.60;2.10;;;11.50;99.90;;;;;;6367089;28;20047;-93
2024/01/02 04:24:55;;;;;;;11.55;2.38;;;11.50;99.90;;;;;;6367420;28;20058;-93
2024/01/02 04:27:56;;;;;;;15.27;2.35;;;11.50;99.90;;;;;;6369147;27;20054;-95
2024/01/02 04:31:00;;;;;;;13.07;2.40;;;11.40;99.90;;;;;;6387612;27;20080;-94
2024/01/02 04:34:02;;;;;;;17.10;2.53;;;11.40;99.90;;;;;;6367486;28;20134;-93
2024/01/02 04:37:04;;;;;;;15.73;2.42;;;11.40;99.90;;;;;;6354682;28;20047;-92
2024/01/02 04:40:06;;;;;;;16.88;2.65;;;11.40;99.90;;;;;;6377804;28;20043;-93
2024/01/02 04:43:08;;;;;;;18.00;2.83;;;11.40;99.90;;;;;;6369796;28;20032;-93
2024/01/02 04:46:10;;;;;;;13.65;2.72;;;11.50;99.90;;;;;;6314906;22;20052;-87
2024/01/02 04:49:13;;;;;;;14.90;2.83;;;11.50;99.90;;;;;;6292613;28;20052;-86
2024/01/02 04:52:15;;;;;;;15.43;2.33;;;11.50;99.90;;;;;;6293375;28;20422;-86
2024/01/02 04:55:16;;;;;;;16.98;2.20;;;11.50;99.90;;;;;;6294113;28;20052;-86
2024/01/02 04:58:18;;;;;;;13.95;2.67;;;11.60;99.90;;;;;;6274179;28;20044;-87
2024/01/02 05:01:20;;;;;;;18.88;2.40;;;11.40;99.90;;;;;;6315801;28;20052;-85
2024/01/02 05:04:21;;;;;;;14.00;2.75;;;11.40;99.90;;;;;;6276409;28;20045;-86
2024/01/02 05:07:23;;;;;;;13.45;2.50;;;11.40;99.90;;;;;;6296047;28;20052;-86
2024/01/02 05:10:25;;;;;;;18.10;3.20;;;11.70;99.90;;;;;;6294262;28;20056;-86
2024/01/02 05:13:26;;;;;;;19.88;3.67;;;11.40;99.90;;;;;;6292361;28;20053;-87
2024/01/02 05:16:28;;;;;;;20.48;2.75;;;11.50;99.90;;;;;;6278481;28;20055;-87
2024/01/02 05:19:30;;;;;;;13.13;3.20;;;11.40;99.90;;;;;;6277293;28;20051;-85
2024/01/02 05:22:32;;;;;;;17.13;2.83;;;11.50;99.90;;;;;;6276562;28;20551;-84
2024/01/02 05:25:33;;;;;;;12.73;2.50;;;11.50;99.90;;;;;;6293667;28;20052;-84
2024/01/02 05:28:35;;;;;;;14.80;3.00;;;11.50;99.90;;;;;;6296039;28;20545;-85
2024/01/02 05:31:36;;;;;;;16.73;2.85;;;11.50;99.90;;;;;;6299205;28;20093;-84
2024/01/02 05:34:38;;;;;;;12.95;2.42;;;11.50;99.90;;;;;;6297755;28;20418;-84
2024/01/02 05:37:39;;;;;;;18.02;3.28;;;11.50;99.90;;;;;;6321024;28;20125;-85
2024/01/02 05:40:41;;;;;;;20.73;3.15;;;11.50;99.90;;;;;;6297518;28;20190;-85
2024/01/02 05:43:43;;;;;;;12.45;2.58;;;11.50;99.90;;;;;;6294060;28;20048;-84
2024/01/02 05:46:44;;;;;;;19.13;2.42;;;11.60;99.90;;;;;;6295965;28;20065;-85
2024/01/02 05:49:46;;;;;;;22.55;3.47;;;11.50;99.90;;;;;;6295619;28;20538;-84
2024/01/02 05:52:47;;;;;;;15.75;2.67;;;11.50;99.90;;;;;;6295522;28;20056;-84
2024/01/02 05:55:49;;;;;;;19.25;3.72;;;11.50;99.90;;;;;;6277128;28;20143;-83
2024/01/02 05:58:51;;;;;;;22.85;3.70;;;11.50;99.90;;;;;;6292223;28;20059;-84
2024/01/02 06:01:52;;;;;;;18.40;3.20;;;11.50;99.90;;;;;;6295234;28;20519;-84
2024/01/02 06:04:54;;;;;;;28.88;4.43;;;11.40;99.90;;;;;;6277657;28;20419;-83
2024/01/02 06:07:56;;;;;;;27.25;5.13;;;11.50;99.90;;;;;;6295124;28;20053;-84
2024/01/02 06:10:57;;;;;;;23.85;4.40;;;11.50;99.90;;;;;;6295531;28;20053;-85
2024/01/02 06:13:59;;;;;;;32.08;5.28;;;11.50;99.90;;;;;;6298223;28;20080;-84
2024/01/02 06:17:01;;;;;;;28.35;4.95;;;11.50;99.90;;;;;;6295434;28;20475;-84
2024/01/02 06:20:04;;;;;;;26.13;5.35;;;11.50;99.90;;;;;;6277195;28;20099;-82
2024/01/02 06:23:06;;;;;;;29.50;5.03;;;11.50;99.90;;;;;;6296743;28;20177;-84
2024/01/02 06:26:08;;;;;;;32.42;5.18;;;11.50;99.90;;;;;;6295077;28;20491;-85
2024/01/02 06:29:10;;;;;;;30.17;5.28;;;11.50;99.90;;;;;;6281853;28;20063;-85
2024/01/02 06:32:11;;;;;;;30.25;4.72;;;11.50;99.90;;;;;;6277904;28;20089;-84
2024/01/02 06:35:13;;;;;;;32.35;6.07;;;11.60;99.90;;;;;;6295033;28;20060;-85
2024/01/02 06:38:16;;;;;;;36.85;5.30;;;11.60;99.90;;;;;;6282711;28;20396;-85
2024/01/02 06:41:18;;;;;;;35.22;5.38;;;11.60;99.90;;;;;;6294383;28;20053;-84
2024/01/02 06:44:20;;;;;;;31.80;5.18;;;11.60;99.90;;;;;;6256161;28;1212450;-86
2024/01/02 06:47:22;;;;;;;28.13;5.03;;;11.60;99.90;;;;;;6303972;28;20086;-85
2024/01/02 06:50:24;;;;;;;33.90;5.50;;;11.60;99.90;;;;;;6303268;28;20095;-86
2024/01/02 06:53:26;;;;;;;30.85;5.45;;;11.60;99.90;;;;;;6321947;28;20067;-85
2024/01/02 06:56:27;;;;;;;28.17;5.57;;;11.60;99.90;;;;;;6322344;28;20056;-83
2024/01/02 06:59:29;;;;;;;31.05;5.07;;;11.60;99.90;;;;;;6307421;28;20060;-84
2024/01/02 07:02:32;;;;;;;34.30;6.07;;;11.50;99.90;;;;;;6321521;28;20074;-84
2024/01/02 07:05:34;;;;;;;31.38;5.45;;;11.50;99.90;;;;;;6320934;28;20133;-84
2024/01/02 07:08:36;;;;;;;33.85;5.43;;;11.50;99.90;;;;;;6320957;28;20056;-85
2024/01/02 07:11:38;;;;;;;36.22;5.13;;;11.50;99.90;;;;;;6321185;28;20055;-83
2024/01/02 07:14:41;;;;;;;37.15;5.65;;;11.50;99.90;;;;;;6318715;28;20059;-84
2024/01/02 07:17:43;;;;;;;27.67;4.93;;;11.50;99.90;;;;;;6303341;28;20048;-83
2024/01/02 07:20:44;;;;;;;37.97;4.95;;;11.50;99.90;;;;;;6321508;28;20056;-84
2024/01/02 07:23:47;;;;;;;24.63;4.90;;;11.40;99.90;;;;;;6319576;28;20076;-85
2024/01/02 07:26:48;;;;;;;33.30;5.53;;;11.90;99.90;;;;;;6320950;28;20067;-85
2024/01/02 07:29:53;;;;;;;29.52;4.90;;;11.30;99.90;;;;;;6319416;28;20059;-86
2024/01/02 07:32:55;;;;;;;34.75;4.72;;;11.30;99.90;;;;;;6296797;28;20052;-86
2024/01/02 07:35:57;;;;;;;31.27;5.05;;;11.30;99.90;;;;;;6320485;28;20058;-86
2024/01/02 07:38:59;;;;;;;38.30;5.18;;;11.30;99.90;;;;;;6296165;28;20143;-85
2024/01/02 07:42:00;;;;;;;30.40;4.45;;;11.30;99.90;;;;;;6320312;28;20143;-86
2024/01/02 07:45:02;;;;;;;26.83;4.95;;;11.30;99.90;;;;;;6305149;28;20502;-86
2024/01/02 07:48:04;;;;;;;31.05;4.63;;;11.30;99.90;;;;;;6296947;28;20499;-88
2024/01/02 07:51:06;;;;;;;27.00;4.18;;;11.30;99.90;;;;;;6321538;28;20056;-86
2024/01/02 07:54:07;;;;;;;28.63;4.82;;;11.30;99.90;;;;;;6304832;28;20415;-87
2024/01/02 07:57:09;;;;;;;31.10;4.80;;;11.20;99.90;;;;;;6307773;28;20062;-89
2024/01/02 08:00:13;;;;;;;23.98;4.03;;;11.20;99.90;;;;;;6309002;28;20052;-87
2024/01/02 08:03:15;;;;;;;20.50;3.75;;;11.20;99.90;;;;;;6318818;28;20143;-89
2024/01/02 08:06:17;;;;;;;27.80;4.35;;;;;;;;;;6340239;28;20102;-88
2024/01/02 08:09:19;;;;;;;23.27;3.60;;;;;;;;;;6335132;28;20426;-90
2024/01/02 08:12:21;;;;;;;20.55;3.50;;;;;;;;;;6316662;28;20052;-90
2024/01/02 08:15:24;;;;;;;21.35;2.75;;;;;;;;;;6332035;28;20434;-90
2024/01/02 08:18:43;;;;;;;16.88;3.13;;;;;;;;;;6310704;28;20053;-89
2024/01/02 08:21:46;;;;;;;15.00;2.63;;;;;;;;;;6332988;28;20058;-90
2024/01/02 08:24:48;;;;;;;19.35;2.85;;;;;;;;;;6336260;28;20048;-91
2024/01/02 08:27:51;;;;;;;14.68;3.03;;;;;;;;;;6322306;28;20052;-94
2024/01/02 08:30:53;;;;;;;16.30;2.78;;;;;;;;;;6300278;28;20482;-94
2024/01/02 08:33:55;;;;;;;18.42;3.00;;;11.30;99.90;;;;;;6295054;28;20103;-89
2024/01/02 08:36:58;;;;;;;12.63;2.28;;;;;;;;;;6310338;28;20067;-88
2024/01/02 08:40:00;;;;;;;15.50;2.55;;;;;;;;;;6314748;28;20055;-88
2024/01/02 08:43:02;;;;;;;9.90;1.95;;;;;;;;;;6314846;28;20056;-90
2024/01/02 08:46:04;;;;;;;12.20;2.25;;;11.20;99.90;;;;;;6299980;28;20056;-93
2024/01/02 08:49:06;;;;;;;13.10;2.38;;;11.20;99.90;;;;;;6289831;28;20032;-95
2024/01/02 08:52:09;;;;;;;10.10;2.03;;;11.10;99.90;;;;;;6309153;28;20052;-93
2024/01/02 08:55:10;;;;;;;13.18;2.00;;;11.20;99.90;;;;;;6308908;28;20052;-94
2024/01/02 08:58:12;;;;;;;8.35;1.83;;;11.20;99.90;;;;;;6293700;28;20071;-94
2024/01/02 09:01:15;;;;;;;10.40;1.58;;;11.20;99.90;;;;;;6304875;28;20143;-92
2024/01/02 09:04:17;;;;;;;8.52;1.50;;;11.20;99.90;;;;;;6265472;28;20045;-94
2024/01/02 09:07:19;;;;;;;7.90;1.42;;;11.20;99.90;;;;;;6318183;28;20056;-94
2024/01/02 09:10:21;;;;;;;5.15;1.20;;;11.20;99.90;;;;;;6307807;28;20114;-94
2024/01/02 09:13:23;;;;;;;5.15;1.13;;;11.20;99.90;;;;;;6299781;28;20136;-95
2024/01/02 09:16:24;;;;;;;8.27;1.73;;;11.20;99.90;;;;;;6308730;28;20126;-94
2024/01/02 09:19:26;;;;;;;6.22;1.20;;;11.30;99.90;;;;;;6285311;28;20064;-89
2024/01/02 09:22:28;;;;;;;7.07;1.42;;;11.20;99.90;;;;;;6280642;28;20136;-88
2024/01/02 09:25:30;;;;;;;5.00;1.10;;;11.20;99.90;;;;;;6298730;28;20056;-88
2024/01/02 09:28:31;;;;;;;4.50;1.10;;;11.20;99.90;;;;;;6278376;28;20071;-89
2024/01/02 09:31:33;;;;;;;5.82;1.00;;;11.20;99.90;;;;;;6298659;28;20068;-89
2024/01/02 09:34:35;;;;;;;4.30;0.88;;;11.20;99.90;;;;;;6281239;28;20484;-89
2024/01/02 09:37:37;;;;;;;5.05;1.05;;;11.20;99.90;;;;;;6280888;28;20499;-84
2024/01/02 09:40:39;;;;;;;3.53;0.75;;;11.20;99.90;;;;;;6279270;28;20370;-84
2024/01/02 09:43:41;;;;;;;2.72;0.60;;;11.30;99.90;;;;;;6295962;28;20067;-91
2024/01/02 09:46:43;;;;;;;1.42;0.55;;;11.30;99.90;;;;;;6305265;28;20081;-90
2024/01/02 09:49:45;;;;;;;2.22;0.50;;;;;;;;;;6325109;28;20062;-89
2024/01/02 09:52:47;;;;;;;2.40;0.40;;;;;;;;;;6319955;28;20418;-86
2024/01/02 09:55:49;;;;;;;1.92;0.50;;;;;;;;;;6320807;28;20509;-86
2024/01/02 09:58:52;;;;;;;1.48;0.35;;;;;;;;;;6320188;28;20048;-86
2024/01/02 10:01:56;;;;;;;1.40;0.40;;;;;;;;;;6322220;28;20145;-86
2024/01/02 10:04:58;;;;;;;3.10;0.65;;;;;;;;;;6303897;28;20056;-88
2024/01/02 10:08:01;;;;;;;1.80;0.35;;;;;;;;;;6322603;28;20147;-87
2024/01/02 10:11:03;;;;;;;1.30;0.40;;;;;;;;;;6304239;28;20063;-88
2024/01/02 10:14:05;;;;;;;1.33;0.30;;;;;;;;;;6320854;28;20060;-86
2024/01/02 10:17:07;;;;;;;1.30;0.40;;;;;;;;;;6324983;28;20063;-88
2024/01/02 10:20:09;;;;;;;1.08;0.40;;;;;;;;;;6307016;28;20150;-88
2024/01/02 10:23:11;;;;;;;1.50;0.50;;;;;;;;;;6322367;28;20052;-87
2024/01/02 10:26:15;;;;;;;1.33;0.40;;;;;;;;;;6303803;28;20059;-88
2024/01/02 10:29:17;;;;;;;2.05;0.60;;;;;;;;;;6301079;28;20139;-88
2024/01/02 10:32:19;;;;;;;4.88;0.75;;;;;;;;;;6303708;28;20443;-88
2024/01/02 10:35:21;;;;;;;3.28;0.70;;;12.60;99.90;;;;;;6303897;28;20089;-88
2024/01/02 10:38:24;;;;;;;3.67;0.82;;;;;;;;;;6303428;28;20091;-87
2024/01/02 10:41:29;;;;;;;5.22;1.10;;;;;;;;;;6303512;28;20047;-88
2024/01/02 10:44:31;;;;;;;8.77;1.25;;;;;;;;;;6318172;28;20078;-87
2024/01/02 10:47:33;;;;;;;7.38;1.20;;;12.50;99.90;;;;;;6303475;28;20502;-87
2024/01/02 10:50:35;;;;;;;7.00;1.50;;;;;;;;;;6303098;28;20058;-89
2024/01/02 10:53:37;;;;;;;10.80;1.77;;;;;;;;;;6301088;28;20530;-86
2024/01/02 10:56:40;;;;;;;11.13;1.92;;;;;;;;;;6303457;28;20097;-86
2024/01/02 10:59:41;;;;;;;12.70;2.20;;;12.70;99.90;;;;;;6318061;28;20056;-86
2024/01/02 11:02:44;;;;;;;12.15;2.25;;;;;;;;;;6302996;28;20465;-88
2024/01/02 11:05:46;;;;;;;15.63;2.70;;;;;;;;;;6303068;28;20052;-87
2024/01/02 11:08:49;;;;;;;10.90;1.77;;;12.50;99.90;;;;;;6320403;28;20048;-85
2024/01/02 11:11:51;;;;;;;11.23;2.65;;;;;;;;;;6302372;28;20067;-87
2024/01/02 11:15:13;;;;;;;14.40;2.20;;;;;;;;;;6293333;28;20143;-88
2024/01/02 11:18:15;;;;;;;14.05;2.10;;;;;;;;;;6319972;28;20055;-89
2024/01/02 11:21:18;;;;;;;15.55;2.50;;;12.20;99.90;;;;;;6302209;28;20048;-88
2024/01/02 11:24:19;;;;;;;9.93;1.98;;;12.50;99.90;;;;;;6319612;28;20047;-88
2024/01/02 11:27:23;;;;;;;9.65;1.85;;;;;;;;;;6301977;28;20255;-88
2024/01/02 11:30:25;;;;;;;9.90;2.10;;;12.60;99.90;;;;;;6319344;28;20055;-86
2024/01/02 11:33:27;;;;;;;9.95;1.80;;;;;;;;;;6301824;28;20048;-86
2024/01/02 11:36:29;;;;;;;9.45;1.50;;;12.50;99.90;;;;;;6319697;28;20056;-86
2024/01/02 11:39:31;;;;;;;9.38;1.55;;;;;;;;;;6320374;28;20134;-85
2024/01/02 11:42:33;;;;;;;6.50;0.98;;;12.60;99.90;;;;;;6319836;28;20423;-86
2024/01/02 11:45:35;;;;;;;4.90;0.85;;;;;;;;;;6302748;28;20060;-86
2024/01/02 11:48:37;;;;;;;4.78;0.80;;;12.40;99.90;;;;;;6300823;28;20081;-87
2024/01/02 11:51:38;;;;;;;3.33;0.70;;;12.50;99.90;;;;;;6276898;28;20053;-86
2024/01/02 11:54:40;;;;;;;3.25;0.80;;;12.30;99.90;;;;;;6280708;28;20060;-88
2024/01/02 11:57:42;;;;;;;2.50;0.57;;;12.50;99.90;;;;;;6300432;28;20423;-88
2024/01/02 12:00:43;;;;;;;3.35;0.70;;;12.90;99.90;;;;;;6266690;28;20060;-86
2024/01/02 12:03:45;;;;;;;2.80;0.52;;;13.00;99.90;;;;;;6269909;28;20084;-87
2024/01/02 12:06:47;;;;;;;2.45;0.65;;;;;;;;;;6318533;28;20056;-85
2024/01/02 12:09:49;;;;;;;1.90;0.57;;;;;;;;;;6276692;28;20420;-85
2024/01/02 12:12:51;;;;;;;2.55;0.60;;;;;;;;;;6317831;28;20259;-86
2024/01/02 12:15:54;;;;;;;0.98;0.47;;;;;;;;;;6275713;28;20052;-87
2024/01/02 12:18:55;;;;;;;1.50;0.50;;;12.80;99.90;;;;;;6251438;28;20052;-85
2024/01/02 12:21:57;;;;;;;3.03;0.55;;;;;;;;;;6316748;28;20060;-86
2024/01/02 12:25:00;;;;;;;2.22;0.40;;;;;;;;;;6276748;28;20056;-87
2024/01/02 12:28:02;;;;;;;1.08;0.45;;;;;;;;;;6315139;28;20233;-86
2024/01/02 12:31:04;;;;;;;1.25;0.50;;;12.60;99.90;;;;;;6294376;28;20653;-86
2024/01/02 12:34:06;;;;;;;2.03;0.60;;;;;;;;;;6251386;28;20057;-86
2024/01/02 12:37:09;;;;;;;1.38;0.30;;;12.70;99.90;;;;;;6316817;28;20044;-88
2024/01/02 12:40:13;;;;;;;1.17;0.30;;;12.70;99.90;;;;;;6276175;28;20107;-86
2024/01/02 12:43:15;;;;;;;1.48;0.40;;;12.70;99.90;;;;;;6311194;28;20045;-86
2024/01/02 12:46:16;;;;;;;0.60;0.28;;;12.80;99.90;;;;;;6276368;28;20053;-85
2024/01/02 12:49:19;;;;;;;1.30;0.50;;;13.40;99.90;;;;;;6275712;28;20049;-88
2024/01/02 12:52:24;;;;;;;2.05;0.40;;;12.80;99.90;;;;;;6275910;28;20056;-87
2024/01/02 12:55:25;;;;;;;1.05;0.45;;;12.80;99.90;;;;;;6291533;28;20059;-86
2024/01/02 12:58:31;;;;;;;1.35;0.40;;;12.80;99.90;;;;;;6271265;28;20051;-85
2024/01/02 13:01:33;;;;;;;3.95;0.70;;;14.00;99.90;;;;;;6275321;28;20504;-85
2024/01/02 13:04:35;;;;;;;2.53;0.50;;;13.10;99.90;;;;;;6292957;28;20136;-86
2024/01/02 13:07:37;;;;;;;2.13;0.40;;;12.90;99.90;;;;;;6275930;28;20062;-86
2024/01/02 13:10:39;;;;;;;2.72;0.80;;;13.10;99.90;;;;;;6293119;28;20048;-85
2024/01/02 13:13:40;;;;;;;2.28;0.68;;;14.00;99.90;;;;;;6291808;28;20048;-86
2024/01/02 13:16:42;;;;;;;3.65;0.68;;;12.80;99.90;;;;;;6275645;28;20064;-87
2024/01/02 13:19:43;;;;;;;3.42;0.60;;;13.10;99.90;;;;;;6275256;28;20053;-85
2024/01/02 13:22:47;;;;;;;4.05;0.80;;;13.40;99.90;;;;;;6292827;28;20059;-85
2024/01/02 13:25:48;;;;;;;7.03;0.90;;;13.10;99.90;;;;;;6275133;28;20526;-84
2024/01/02 13:28:50;;;;;;;8.25;1.35;;;13.20;99.90;;;;;;6272303;28;20064;-85
2024/01/02 13:31:54;;;;;;;6.38;1.02;;;13.30;99.90;;;;;;6292789;28;20056;-84
2024/01/02 13:34:57;;;;;;;5.88;1.00;;;13.30;99.90;;;;;;6274880;28;20051;-84
2024/01/02 13:37:59;;;;;;;7.35;1.20;;;13.30;99.90;;;;;;6275082;28;20050;-87
2024/01/02 13:41:00;;;;;;;7.20;1.30;;;13.30;99.90;;;;;;6293126;28;20048;-84
2024/01/02 13:44:02;;;;;;;6.63;1.30;;;13.30;99.90;;;;;;6293999;28;20063;-85
2024/01/02 13:47:04;;;;;;;6.47;1.23;;;13.20;99.90;;;;;;6318872;28;20044;-84
2024/01/02 13:50:07;;;;;;;7.28;1.45;;;13.20;99.90;;;;;;6303975;28;20052;-87
2024/01/02 13:53:09;;;;;;;7.13;1.50;;;13.20;99.90;;;;;;6320570;28;20048;-84
2024/01/02 13:56:11;;;;;;;9.35;1.58;;;13.20;99.90;;;;;;6304498;28;20585;-87
2024/01/02 13:59:12;;;;;;;13.95;2.40;;;13.20;99.90;;;;;;6320242;28;20052;-87
2024/01/02 14:02:14;;;;;;;19.10;3.00;;;13.20;99.90;;;;;;6303116;28;20144;-83
2024/01/02 14:05:16;;;;;;;15.90;2.65;;;13.10;99.90;;;;;;6324106;28;20411;-84
2024/01/02 14:08:19;;;;;;;14.98;2.63;;;13.10;99.90;;;;;;6304103;28;20186;-84
2024/01/02 14:11:21;;;;;;;13.73;2.55;;;13.20;99.90;;;;;;6303432;28;20056;-85
2024/01/02 14:14:23;;;;;;;15.00;2.88;;;13.20;99.90;;;;;;6319828;28;20147;-84
2024/01/02 14:17:40;;;;;;;15.50;2.65;;;13.20;99.90;;;;;;6281303;28;20515;-84
2024/01/02 14:20:45;;;;;;;13.30;2.67;;;13.10;99.90;;;;;;6302714;28;20095;-83
2024/01/02 14:23:47;;;;;;;18.98;3.60;;;13.10;99.90;;;;;;6296083;28;20052;-84
2024/01/02 14:26:49;;;;;;;15.52;3.22;;;13.00;99.90;;;;;;6320757;28;20052;-83
2024/01/02 14:29:50;;;;;;;20.02;3.13;;;13.00;99.90;;;;;;6302328;28;20082;-83
2024/01/02 14:32:52;;;;;;;19.05;3.55;;;13.00;99.90;;;;;;6320987;28;20534;-84
2024/01/02 14:35:54;;;;;;;20.45;4.13;;;13.00;99.90;;;;;;6302517;28;20060;-84
2024/01/02 14:38:56;;;;;;;26.23;4.10;;;12.90;99.90;;;;;;6302498;28;20411;-84
2024/01/02 14:41:57;;;;;;;19.90;3.35;;;12.70;99.90;;;;;;6320479;28;20495;-84
2024/01/02 14:44:59;;;;;;;23.17;3.75;;;12.70;99.90;;;;;;6317842;28;20064;-82
2024/01/02 14:48:01;;;;;;;19.42;3.50;;;12.60;99.90;;;;;;6321028;28;20087;-84
2024/01/02 14:51:03;;;;;;;18.40;3.10;;;12.40;99.90;;;;;;6302348;28;20143;-85
2024/01/02 14:54:05;;;;;;;20.25;3.08;;;12.30;99.90;;;;;;6300622;28;20415;-84
2024/01/02 14:57:08;;;;;;;17.48;2.67;;;12.20;99.90;;;;;;6320002;28;20048;-83
2024/01/02 15:00:11;;;;;;;12.80;2.55;;;12.20;99.90;;;;;;6314784;28;20056;-84
2024/01/02 15:03:13;;;;;;;9.40;1.80;;;12.20;99.90;;;;;;6320045;28;20048;-84
2024/01/02 15:06:15;;;;;;;8.30;1.52;;;12.30;99.90;;;;;;6302001;28;20055;-84
2024/01/02 15:09:16;;;;;;;4.90;1.05;;;12.50;99.90;;;;;;6302081;28;20341;-88
2024/01/02 15:12:18;;;;;;;3.97;0.93;;;12.60;99.90;;;;;;6302390;28;20155;-84
2024/01/02 15:15:21;;;;;;;7.85;0.90;;;12.70;99.90;;;;;;6317244;28;20083;-87
2024/01/02 15:18:23;;;;;;;4.72;0.80;;;12.60;99.90;;;;;;6302046;28;20440;-85
2024/01/02 15:21:25;;;;;;;4.93;0.70;;;12.60;98.60;;;;;;6301691;28;20138;-83
2024/01/02 15:24:27;;;;;;;4.10;0.75;;;12.40;96.20;;;;;;6302179;28;20555;-83
2024/01/02 15:27:28;;;;;;;5.75;0.88;;;12.30;91.30;;;;;;6301405;28;20062;-84
2024/01/02 15:30:30;;;;;;;3.90;0.60;;;12.20;92.20;;;;;;6299405;28;20159;-85
2024/01/02 15:33:32;;;;;;;2.70;0.50;;;12.20;82.00;;;;;;6319653;28;20135;-86
2024/01/02 15:36:34;;;;;;;1.92;0.60;;;12.20;88.80;;;;;;6319425;28;20060;-84
2024/01/02 15:39:36;;;;;;;3.38;0.70;;;12.10;85.60;;;;;;6302218;28;20052;-88
2024/01/02 15:42:38;;;;;;;4.57;0.70;;;12.10;90.80;;;;;;6301392;28;20047;-84
2024/01/02 15:45:39;;;;;;;2.25;0.60;;;12.00;88.80;;;;;;6316981;28;20055;-87
2024/01/02 15:48:41;;;;;;;3.53;0.80;;;11.90;90.80;;;;;;6319708;28;20074;-86
2024/01/02 15:51:43;;;;;;;1.90;0.50;;;11.90;85.60;;;;;;6319795;28;20117;-84
2024/01/02 15:54:44;;;;;;;3.78;0.60;;;11.90;88.60;;;;;;6299183;28;20051;-84
2024/01/02 15:57:46;;;;;;;2.17;0.55;;;11.90;94.60;;;;;;6318388;28;20059;-84
2024/01/02 16:00:47;;;;;;;3.20;0.73;;;11.80;93.30;;;;;;6317912;28;20052;-84
2024/01/02 16:03:49;;;;;;;2.75;0.60;;;11.80;93.30;;;;;;6294075;28;20400;-84
2024/01/02 16:06:51;;;;;;;4.68;0.95;;;11.80;93.80;;;;;;6308617;28;20145;-85